Time;durP1;ratioP1;P1;durP2;ratioP2;P2;SDS_P1;SDS_P2;PMS_P1;PMS_P2;Temp;Humidity;BMP_temperature;BMP_pressure;BME280_temperature;BME280_humidity;BME280_pressure;Samples;Min_cycle;Max_cycle;Signal;HPM_P1;HPM_P2
2021/09/23 00:01:01;;;;;;;7.45;4.70;;;;;;;;;;4982861;28;20032;-86
2021/09/23 00:03:56;;;;;;;10.18;6.05;;;;;;;;;;4989292;28;20097;-86
2021/09/23 00:06:42;;;;;;;9.82;5.60;;;;;;;;;;4994086;28;20026;-87
2021/09/23 00:09:28;;;;;;;10.02;5.40;;;;;;;;;;4993650;28;20022;-87
2021/09/23 00:12:14;;;;;;;6.70;4.70;;;;;;;;;;4993446;28;20026;-86
2021/09/23 00:14:59;;;;;;;6.78;4.68;;;;;;;;;;4993890;28;20022;-88
2021/09/23 00:17:47;;;;;;;7.63;4.78;;;;;;;;;;4997220;28;20484;-86
2021/09/23 00:20:36;;;;;;;10.38;4.90;;;;;;;;;;4995318;28;20679;-87
2021/09/23 00:23:21;;;;;;;9.00;5.05;;;;;;;;;;4991770;28;20113;-86
2021/09/23 00:26:07;;;;;;;9.98;4.95;;;;;;;;;;4993151;28;20036;-86
2021/09/23 00:28:52;;;;;;;10.40;5.63;;;;;;;;;;4977509;28;20026;-85
2021/09/23 00:31:37;;;;;;;8.10;5.40;;;;;;;;;;4994833;28;20022;-85
2021/09/23 00:34:23;;;;;;;9.57;5.72;;;;;;;;;;4992892;28;20113;-86
2021/09/23 00:37:08;;;;;;;13.80;5.90;;;;;;;;;;4989715;28;20432;-84
2021/09/23 00:39:53;;;;;;;7.30;4.60;;;;;;;;;;4992873;28;20029;-84
2021/09/23 00:42:39;;;;;;;7.97;4.63;;;;;;;;;;4993638;28;20084;-85
2021/09/23 00:45:25;;;;;;;8.90;4.90;;;;;;;;;;4992767;28;20036;-84
2021/09/23 00:48:10;;;;;;;7.88;5.07;;;;;;;;;;4994568;28;20129;-85
2021/09/23 00:50:56;;;;;;;9.63;4.53;;;;;;;;;;4996937;28;20463;-85
2021/09/23 00:53:41;;;;;;;9.80;5.65;;;;;;;;;;4993971;28;20030;-85
2021/09/23 00:56:27;;;;;;;10.10;5.22;;;;;;;;;;4997123;28;20026;-85
2021/09/23 00:59:12;;;;;;;7.70;5.18;;;;;;;;;;4992411;28;20022;-85
2021/09/23 01:01:57;;;;;;;10.23;5.80;;;;;;;;;;4993894;28;20480;-85
2021/09/23 01:04:44;;;;;;;9.45;5.30;;;;;;;;;;4996662;28;20109;-85
2021/09/23 01:07:29;;;;;;;9.50;5.65;;;;;;;;;;4997750;28;20029;-85
2021/09/23 01:10:15;;;;;;;10.73;5.53;;;;;;;;;;4994325;28;20025;-85
2021/09/23 01:13:01;;;;;;;12.82;6.18;;;;;;;;;;4997336;28;20033;-84
2021/09/23 01:15:46;;;;;;;12.30;6.40;;;;;;;;;;4989956;28;20034;-86
2021/09/23 01:18:31;;;;;;;12.75;5.60;;;;;;;;;;4997218;28;20018;-85
2021/09/23 01:21:16;;;;;;;11.93;6.25;;;;;;;;;;4995945;28;20044;-85
2021/09/23 01:24:01;;;;;;;14.10;7.15;;;;;;;;;;4996447;28;20542;-87
2021/09/23 01:26:48;;;;;;;16.55;6.95;;;;;;;;;;4992756;28;20033;-85
2021/09/23 01:29:34;;;;;;;18.63;7.57;;;;;;;;;;4997114;28;20025;-85
2021/09/23 01:32:21;;;;;;;15.50;7.53;;;;;;;;;;4996242;28;20018;-85
2021/09/23 01:35:07;;;;;;;19.50;7.47;;;;;;;;;;4996577;28;20116;-84
2021/09/23 01:37:52;;;;;;;15.30;6.82;;;;;;;;;;4993053;28;20034;-86
2021/09/23 01:40:37;;;;;;;10.77;6.30;;;;;;;;;;4996588;28;20433;-86
2021/09/23 01:43:23;;;;;;;17.60;7.68;;;;;;;;;;4993656;28;20033;-85
2021/09/23 01:46:08;;;;;;;14.32;6.28;;;;;;;;;;4995957;28;20397;-85
2021/09/23 01:48:53;;;;;;;18.13;7.25;;;;;;;;;;4978749;28;20460;-85
2021/09/23 01:51:39;;;;;;;13.10;6.43;;;;;;;;;;4995256;28;20037;-86
2021/09/23 01:54:24;;;;;;;11.77;5.70;;;;;;;;;;4995673;28;20018;-84
2021/09/23 01:57:09;;;;;;;11.30;6.07;;;;;;;;;;4995390;28;20374;-86
2021/09/23 01:59:55;;;;;;;10.88;5.78;;;;;;;;;;4993786;28;20507;-85
2021/09/23 02:02:40;;;;;;;12.10;6.28;;;;;;;;;;4995827;28;20142;-85
2021/09/23 02:05:29;;;;;;;11.88;6.00;;;;;;;;;;4993896;28;20036;-87
2021/09/23 02:08:14;;;;;;;19.23;7.25;;;;;;;;;;4986864;28;20484;-86
2021/09/23 02:10:59;;;;;;;16.48;6.03;;;;;;;;;;4996559;28;20038;-86
2021/09/23 02:13:44;;;;;;;12.23;5.78;;;;;;;;;;4978575;28;20023;-86
2021/09/23 02:16:30;;;;;;;12.25;6.70;;;;;;;;;;4994013;28;20029;-86
2021/09/23 02:19:15;;;;;;;9.68;4.95;;;;;;;;;;4993851;28;20392;-85
2021/09/23 02:22:00;;;;;;;10.55;6.00;;;;;;;;;;4994766;28;20021;-85
2021/09/23 02:24:46;;;;;;;9.45;5.32;;;;;;;;;;4994269;28;20044;-84
2021/09/23 02:27:31;;;;;;;9.57;5.72;;;;;;;;;;4995704;28;20524;-85
2021/09/23 02:30:16;;;;;;;10.20;5.60;;;;;;;;;;5002150;28;20114;-85
2021/09/23 02:33:02;;;;;;;12.45;6.57;;;;;;;;;;4994614;28;20030;-84
2021/09/23 02:35:47;;;;;;;8.20;5.43;;;;;;;;;;4991706;28;20036;-85
2021/09/23 02:38:32;;;;;;;9.38;5.63;;;;;;;;;;4992209;28;20528;-85
2021/09/23 02:41:17;;;;;;;11.13;5.95;;;;;;;;;;4995590;28;20061;-86
2021/09/23 02:44:03;;;;;;;10.05;6.15;;;;;;;;;;4977218;28;20053;-85
2021/09/23 02:46:48;;;;;;;10.05;6.10;;;;;;;;;;4995919;28;20030;-85
2021/09/23 02:49:33;;;;;;;10.85;5.70;;;;;;;;;;4993920;28;20045;-86
2021/09/23 02:52:18;;;;;;;8.52;6.28;;;;;;;;;;4993223;28;20451;-86
2021/09/23 02:55:04;;;;;;;14.02;5.53;;;;;;;;;;4992707;28;20037;-87
2021/09/23 02:57:52;;;;;;;10.02;5.10;;;;;;;;;;4987084;28;20022;-85
2021/09/23 03:00:37;;;;;;;11.40;5.57;;;;;;;;;;4992759;28;20025;-85
2021/09/23 03:03:23;;;;;;;9.43;5.38;;;;;;;;;;4995140;28;20033;-83
2021/09/23 03:06:08;;;;;;;9.50;5.50;;;;;;;;;;4990542;28;20021;-85
2021/09/23 03:08:53;;;;;;;11.10;6.22;;;;;;;;;;4995354;28;20026;-85
2021/09/23 03:11:38;;;;;;;12.43;6.57;;;;;;;;;;4989610;28;20531;-86
2021/09/23 03:14:24;;;;;;;9.30;5.57;;;;;;;;;;4995092;28;20500;-86
2021/09/23 03:17:09;;;;;;;13.38;7.35;;;;;;;;;;4979978;28;20104;-87
2021/09/23 03:19:54;;;;;;;10.82;5.55;;;;;;;;;;4993945;28;20030;-86
2021/09/23 03:22:39;;;;;;;12.27;5.72;;;;;;;;;;4991298;28;20452;-84
2021/09/23 03:25:25;;;;;;;12.25;7.47;;;;;;;;;;4991993;28;20074;-84
2021/09/23 03:28:10;;;;;;;10.57;4.90;;;;;;;;;;4994820;28;20028;-84
2021/09/23 03:30:56;;;;;;;9.68;6.35;;;;;;;;;;4993569;28;20097;-87
2021/09/23 03:33:41;;;;;;;10.93;5.97;;;;;;;;;;4994423;28;20104;-86
2021/09/23 03:36:27;;;;;;;9.90;6.72;;;;;;;;;;4993439;28;20037;-86
2021/09/23 03:39:13;;;;;;;9.70;5.57;;;;;;;;;;4994874;28;20029;-86
2021/09/23 03:41:58;;;;;;;11.20;6.10;;;;;;;;;;4993446;28;20044;-85
2021/09/23 03:44:44;;;;;;;9.10;5.63;;;;;;;;;;4994452;28;20113;-85
2021/09/23 03:47:30;;;;;;;9.43;5.13;;;;;;;;;;4993853;28;20054;-90
2021/09/23 03:50:16;;;;;;;8.45;5.30;;;;;;;;;;4988749;28;20472;-83
2021/09/23 03:53:02;;;;;;;12.43;6.75;;;;;;;;;;4993158;28;20037;-82
2021/09/23 03:55:47;;;;;;;8.75;6.38;;;;;;;;;;4993727;28;20384;-84
2021/09/23 03:58:32;;;;;;;9.98;5.80;;;;;;;;;;4990097;28;20030;-84
2021/09/23 04:01:17;;;;;;;10.60;6.38;;;;;;;;;;4994463;28;20119;-84
2021/09/23 04:04:03;;;;;;;10.90;6.43;;;;;;;;;;4987885;28;20026;-85
2021/09/23 04:06:48;;;;;;;8.52;5.43;;;;;;;;;;4988293;28;20022;-85
2021/09/23 04:09:33;;;;;;;12.45;6.55;;;;;;;;;;4993901;28;20018;-87
2021/09/23 04:12:18;;;;;;;11.68;5.13;;;;;;;;;;4987588;28;20022;-88
2021/09/23 04:15:04;;;;;;;12.15;6.18;;;;;;;;;;4993742;28;20504;-86
2021/09/23 04:17:50;;;;;;;9.40;6.00;;;;;;;;;;4993197;28;20094;-85
2021/09/23 04:20:36;;;;;;;8.85;5.68;;;;;;;;;;4988216;28;20033;-85
2021/09/23 04:23:21;;;;;;;9.15;6.05;;;;;;;;;;4991422;28;20487;-87
2021/09/23 04:26:06;;;;;;;7.75;4.82;;;;;;;;;;4997110;28;20025;-86
2021/09/23 04:28:51;;;;;;;8.57;5.57;;;;;;;;;;4996365;28;22292;-84
2021/09/23 04:31:37;;;;;;;10.80;6.47;;;;;;;;;;4998092;28;20037;-83
2021/09/23 04:34:22;;;;;;;8.32;4.82;;;;;;;;;;4996825;28;20030;-83
2021/09/23 04:37:07;;;;;;;9.50;5.90;;;;;;;;;;4995544;28;20026;-81
2021/09/23 04:39:52;;;;;;;10.10;5.60;;;;;;;;;;4981513;28;20092;-81
2021/09/23 04:42:40;;;;;;;9.20;5.50;;;;;;;;;;4997289;28;20029;-81
2021/09/23 04:45:25;;;;;;;11.07;6.68;;;;;;;;;;4995794;28;20034;-81
2021/09/23 04:48:10;;;;;;;11.25;6.47;;;;;;;;;;4996355;28;20053;-80
2021/09/23 04:50:56;;;;;;;8.80;5.20;;;;;;;;;;4992386;28;20409;-80
2021/09/23 04:53:41;;;;;;;9.70;6.03;;;;;;;;;;4994837;28;20030;-81
2021/09/23 04:56:26;;;;;;;9.50;6.60;;;;;;;;;;5004474;28;20022;-81
2021/09/23 04:59:13;;;;;;;10.40;6.32;;;;;;;;;;4995488;28;20388;-81
2021/09/23 05:01:58;;;;;;;10.35;6.63;;;;;;;;;;4995330;28;20484;-81
2021/09/23 05:04:44;;;;;;;10.88;6.25;;;;;;;;;;4995714;28;20030;-81
2021/09/23 05:07:30;;;;;;;11.55;6.63;;;;;;;;;;4995696;28;20083;-86
2021/09/23 05:10:15;;;;;;;9.43;6.68;;;;;;;;;;4996654;28;20079;-87
2021/09/23 05:13:01;;;;;;;14.40;6.82;;;;;;;;;;4991454;28;20938;-85
2021/09/23 05:15:47;;;;;;;10.18;6.20;;;;;;;;;;4994975;28;20036;-86
2021/09/23 05:18:32;;;;;;;10.35;5.70;;;;;;;;;;4995876;28;20035;-85
2021/09/23 05:21:17;;;;;;;16.58;7.75;;;;;;;;;;4995156;28;20611;-86
2021/09/23 05:24:04;;;;;;;18.13;7.95;;;;;;;;;;4996845;28;20611;-87
2021/09/23 05:26:49;;;;;;;13.60;7.07;;;;;;;;;;4994686;28;20026;-87
2021/09/23 05:29:34;;;;;;;18.35;7.28;;;;;;;;;;4995938;28;20081;-85
2021/09/23 05:32:20;;;;;;;15.55;7.25;;;;;;;;;;4996229;28;20030;-88
2021/09/23 05:35:05;;;;;;;15.00;6.88;;;;;;;;;;4990535;28;20704;-87
2021/09/23 05:37:51;;;;;;;12.57;6.72;;;;;;;;;;5007304;28;20389;-84
2021/09/23 05:40:36;;;;;;;12.93;6.22;;;;;;;;;;4995407;28;20026;-84
2021/09/23 05:43:22;;;;;;;9.80;6.07;;;;;;;;;;4996073;28;20028;-83
2021/09/23 05:46:07;;;;;;;18.45;7.50;;;;;;;;;;4995340;28;20030;-82
2021/09/23 05:48:52;;;;;;;13.00;7.25;;;;;;;;;;4996178;28;20130;-82
2021/09/23 05:51:39;;;;;;;12.90;6.57;;;;;;;;;;4990705;28;20110;-83
2021/09/23 05:54:25;;;;;;;9.77;6.32;;;;;;;;;;4996040;28;20022;-84
2021/09/23 05:57:10;;;;;;;11.93;7.30;;;;;;;;;;4995194;28;20037;-81
2021/09/23 05:59:55;;;;;;;11.93;7.05;;;;;;;;;;4993163;28;20253;-83
2021/09/23 06:02:41;;;;;;;14.65;7.57;;;;;;;;;;4995377;28;20069;-85
2021/09/23 06:05:26;;;;;;;11.63;6.70;;;;;;;;;;4968270;28;20022;-84
2021/09/23 06:08:12;;;;;;;15.25;7.18;;;;;;;;;;4992308;28;20084;-83
2021/09/23 06:10:57;;;;;;;11.65;7.95;;;;;;;;;;4988089;28;20083;-84
2021/09/23 06:13:43;;;;;;;12.27;7.85;;;;;;;;;;4992873;28;20061;-83
2021/09/23 06:16:28;;;;;;;13.82;7.38;;;;;;;;;;4995810;28;20071;-83
2021/09/23 06:19:14;;;;;;;21.50;9.20;;;;;;;;;;4976737;28;20036;-83
2021/09/23 06:21:59;;;;;;;13.38;7.05;;;;;;;;;;4990151;28;20507;-84
2021/09/23 06:24:44;;;;;;;18.98;8.40;;;;;;;;;;4995338;28;20037;-83
2021/09/23 06:27:29;;;;;;;12.07;7.03;;;;;;;;;;4994626;28;20038;-84
2021/09/23 06:30:17;;;;;;;13.75;8.02;;;;;;;;;;4995877;28;20038;-83
2021/09/23 06:33:02;;;;;;;11.68;7.40;;;;;;;;;;4988285;28;20757;-82
2021/09/23 06:35:50;;;;;;;12.90;8.27;;;;;;;;;;5007425;28;20079;-83
2021/09/23 06:38:35;;;;;;;17.13;9.23;;;;;;;;;;4993801;28;20018;-82
2021/09/23 06:41:21;;;;;;;15.73;8.63;;;;;;;;;;4995484;28;20057;-82
2021/09/23 06:44:06;;;;;;;13.00;7.78;;;;;;;;;;4994470;28;20054;-81
2021/09/23 06:46:51;;;;;;;14.48;9.20;;;;;;;;;;4993444;28;20632;-82
2021/09/23 06:49:36;;;;;;;14.13;8.25;;;;;;;;;;4993479;28;20438;-82
2021/09/23 06:52:23;;;;;;;14.75;8.85;;;;;;;;;;4991889;28;20524;-84
2021/09/23 06:55:09;;;;;;;16.77;9.25;;;;;;;;;;4991930;28;20412;-82
2021/09/23 06:57:54;;;;;;;13.02;7.82;;;;;;;;;;4994650;28;20053;-84
2021/09/23 07:00:40;;;;;;;15.82;8.75;;;;;;;;;;4994339;28;20030;-84
2021/09/23 07:03:28;;;;;;;15.75;8.15;;;;;;;;;;4995505;28;20106;-84
2021/09/23 07:06:13;;;;;;;12.63;7.95;;;;;;;;;;4989565;28;20037;-84
2021/09/23 07:08:59;;;;;;;14.32;8.05;;;;;;;;;;4993414;28;20109;-85
2021/09/23 07:11:44;;;;;;;14.05;8.98;;;;;;;;;;4993815;28;20459;-84
2021/09/23 07:14:29;;;;;;;16.35;7.88;;;;;;;;;;4992957;28;20017;-86
2021/09/23 07:17:14;;;;;;;12.85;7.50;;;;;;;;;;4994746;28;20427;-85
2021/09/23 07:19:59;;;;;;;11.95;7.68;;;;;;;;;;4985854;28;20022;-86
2021/09/23 07:22:45;;;;;;;25.17;7.78;;;;;;;;;;4992692;28;20084;-86
2021/09/23 07:25:31;;;;;;;11.70;6.97;;;;;;;;;;4992794;28;20030;-86
2021/09/23 07:28:17;;;;;;;11.70;6.88;;;;;;;;;;4988033;28;20476;-82
2021/09/23 07:31:02;;;;;;;14.27;8.07;;;;;;;;;;4985872;28;20056;-84
2021/09/23 07:33:50;;;;;;;10.65;7.35;;;;;;;;;;4980705;28;20566;-81
2021/09/23 07:36:35;;;;;;;11.43;6.75;;;;;;;;;;4989402;28;20062;-82
2021/09/23 07:39:20;;;;;;;11.27;6.68;;;;;;;;;;4993512;28;20057;-88
2021/09/23 07:42:06;;;;;;;13.05;7.22;;;;;;;;;;4990948;28;20400;-83
2021/09/23 07:44:51;;;;;;;10.10;6.25;;;;;;;;;;4992019;28;20029;-82
2021/09/23 07:47:36;;;;;;;10.27;6.25;;;;;;;;;;4986646;28;20500;-80
2021/09/23 07:50:21;;;;;;;7.57;5.30;;;;;;;;;;4983092;28;20114;-81
2021/09/23 07:53:07;;;;;;;14.82;5.97;;;;;;;;;;4986400;28;20038;-83
2021/09/23 07:55:52;;;;;;;13.15;5.22;;;;;;;;;;4986373;28;20034;-87
2021/09/23 07:58:38;;;;;;;9.85;4.93;;;;;;;;;;4987462;28;20092;-81
2021/09/23 08:01:23;;;;;;;10.30;5.18;;;;;;;;;;4982186;28;20122;-82
2021/09/23 08:04:09;;;;;;;7.57;4.93;;;;;;;;;;4982737;28;20712;-82
2021/09/23 08:06:54;;;;;;;9.65;4.88;;;;;;;;;;4984798;28;20038;-82
2021/09/23 08:09:39;;;;;;;11.25;4.70;;;;;;;;;;4987592;28;20037;-81
2021/09/23 08:12:24;;;;;;;8.00;4.35;;;;;;;;;;4986473;28;20468;-82
2021/09/23 08:15:10;;;;;;;11.65;4.53;;;;;;;;;;4987240;28;20473;-82
2021/09/23 08:17:56;;;;;;;9.90;4.60;;;;;;;;;;4986141;28;20093;-82
2021/09/23 08:20:41;;;;;;;9.10;4.30;;;;;;;;;;4987777;28;20027;-81
2021/09/23 08:23:26;;;;;;;7.00;4.40;;;;;;;;;;4998493;28;20019;-86
2021/09/23 08:26:12;;;;;;;7.20;3.83;;;;;;;;;;4987740;28;20101;-83
2021/09/23 08:28:57;;;;;;;7.95;3.60;;;;;;;;;;4986221;28;20033;-85
2021/09/23 08:31:42;;;;;;;5.90;3.67;;;;;;;;;;4975488;28;20034;-84
2021/09/23 08:34:27;;;;;;;7.05;3.47;;;;;;;;;;4983949;28;20053;-83
2021/09/23 08:37:13;;;;;;;6.40;3.00;;;;;;;;;;4986671;28;20173;-85
2021/09/23 08:39:58;;;;;;;6.18;3.00;;;;;;;;;;4987496;28;20053;-85
2021/09/23 08:42:44;;;;;;;8.88;3.40;;;;;;;;;;4982354;28;20031;-89
2021/09/23 08:45:30;;;;;;;9.60;3.28;;;;;;;;;;4989385;28;20019;-86
2021/09/23 08:48:16;;;;;;;8.98;3.08;;;;;;;;;;4985895;28;20072;-85
2021/09/23 08:51:02;;;;;;;4.70;2.83;;;;;;;;;;4983862;28;20596;-85
2021/09/23 08:53:47;;;;;;;5.10;2.60;;;;;;;;;;4986731;28;20030;-87
2021/09/23 08:56:33;;;;;;;6.88;2.80;;;;;;;;;;4988250;28;20025;-87
2021/09/23 08:59:18;;;;;;;6.50;2.47;;;;;;;;;;4987215;28;20026;-84
2021/09/23 09:02:05;;;;;;;4.10;2.42;;;;;;;;;;4981233;28;20108;-86
2021/09/23 09:04:51;;;;;;;5.57;2.75;;;;;;;;;;4986649;28;20061;-89
2021/09/23 09:07:38;;;;;;;8.13;3.03;;;;;;;;;;4988357;28;20040;-87
2021/09/23 09:10:25;;;;;;;3.95;2.67;;;;;;;;;;4970440;28;20385;-87
2021/09/23 09:13:11;;;;;;;4.53;2.83;;;;;;;;;;4988922;28;20030;-85
2021/09/23 09:15:58;;;;;;;5.65;2.70;;;;;;;;;;4993446;28;20374;-86
2021/09/23 09:18:44;;;;;;;5.78;2.75;;;;;;;;;;4982189;28;20030;-92
2021/09/23 09:21:29;;;;;;;3.50;2.60;;;;;;;;;;4994897;28;20015;-90
2021/09/23 09:24:18;;;;;;;10.35;2.72;;;;;;;;;;4971706;28;20128;-90
2021/09/23 09:27:04;;;;;;;5.57;2.63;;;;;;;;;;4990853;28;20022;-86
2021/09/23 09:29:53;;;;;;;3.95;2.80;;;;;;;;;;4971357;28;20381;-86
2021/09/23 09:32:41;;;;;;;3.15;2.05;;;;;;;;;;4986152;28;20019;-84
2021/09/23 09:35:30;;;;;;;3.35;2.30;;;;;;;;;;4989656;28;20444;-84
2021/09/23 09:38:15;;;;;;;4.63;2.22;;;;;;;;;;4990126;28;20444;-85
2021/09/23 09:41:02;;;;;;;6.32;3.38;;;;;;;;;;4989979;28;20034;-85
2021/09/23 09:43:49;;;;;;;3.70;2.65;;;;;;;;;;4989643;28;20073;-84
2021/09/23 09:46:47;;;;;;;2.25;2.05;;;;;;;;;;4986215;28;20109;-86
2021/09/23 09:49:33;;;;;;;3.75;2.25;;;;;;;;;;4996521;28;20131;-87
2021/09/23 09:52:29;;;;;;;3.45;2.50;;;;;;;;;;4995110;28;20435;-88
2021/09/23 09:55:14;;;;;;;3.83;2.15;;;;;;;;;;4996030;28;20089;-87
2021/09/23 09:58:00;;;;;;;4.53;2.50;;;;;;;;;;4998935;28;20026;-87
2021/09/23 10:00:46;;;;;;;3.25;2.50;;;;;;;;;;4994082;28;20104;-89
2021/09/23 10:03:32;;;;;;;3.25;2.28;;;;;;;;;;4995705;28;20029;-88
2021/09/23 10:06:18;;;;;;;2.17;1.95;;;;;;;;;;4993659;28;20492;-86
2021/09/23 10:09:03;;;;;;;3.97;1.77;;;;;;;;;;4983651;28;20453;-85
2021/09/23 10:11:48;;;;;;;2.45;2.17;;;;;;;;;;4996249;28;20101;-89
2021/09/23 10:14:35;;;;;;;2.63;2.03;;;;;;;;;;4992056;28;20033;-89
2021/09/23 10:17:24;;;;;;;2.33;2.03;;;;;;;;;;4992198;28;20021;-88
2021/09/23 10:20:12;;;;;;;3.47;2.10;;;;;;;;;;4993587;28;20037;-89
2021/09/23 10:22:59;;;;;;;3.17;2.25;;;;;;;;;;4992460;28;20439;-87
2021/09/23 10:25:45;;;;;;;3.25;2.33;;;;;;;;;;4994983;28;20557;-87
2021/09/23 10:28:31;;;;;;;3.20;1.95;;;;;;;;;;4979076;28;20048;-87
2021/09/23 10:31:17;;;;;;;3.95;2.22;;;;;;;;;;4993675;28;20022;-91
2021/09/23 10:34:04;;;;;;;3.88;2.28;;;;;;;;;;4992746;28;20056;-86
2021/09/23 10:36:50;;;;;;;2.05;1.70;;;;;;;;;;4996060;28;20592;-88
2021/09/23 10:39:38;;;;;;;2.90;1.88;;;;;;;;;;4995825;28;20033;-88
2021/09/23 10:42:24;;;;;;;4.78;2.00;;;;;;;;;;4996138;28;20105;-86
2021/09/23 10:45:09;;;;;;;2.97;2.00;;;;;;;;;;4989184;28;20037;-89
2021/09/23 10:47:55;;;;;;;2.42;1.75;;;;;;;;;;4995387;28;20046;-90
2021/09/23 10:50:42;;;;;;;2.65;1.98;;;;;;;;;;4998283;28;20033;-83
2021/09/23 10:53:27;;;;;;;2.75;2.10;;;;;;;;;;5001367;28;20022;-85
2021/09/23 10:56:12;;;;;;;3.78;2.05;;;;;;;;;;5006106;28;20111;-84
2021/09/23 10:58:58;;;;;;;6.40;2.20;;;;;;;;;;4989469;28;20061;-85
2021/09/23 11:01:44;;;;;;;2.22;1.90;;;;;;;;;;4996167;28;20034;-84
2021/09/23 11:04:31;;;;;;;4.07;2.22;;;;;;;;;;4991446;28;20025;-87
2021/09/23 11:07:17;;;;;;;2.85;2.10;;;;;;;;;;4994631;28;20324;-88
2021/09/23 11:10:02;;;;;;;3.92;2.13;;;;;;;;;;4992765;28;20080;-87
2021/09/23 11:12:48;;;;;;;4.82;2.10;;;;;;;;;;4997007;28;20055;-88
2021/09/23 11:15:35;;;;;;;4.00;2.25;;;;;;;;;;4989653;28;20038;-88
2021/09/23 11:18:20;;;;;;;4.93;2.38;;;;;;;;;;4992740;28;20037;-91
2021/09/23 11:21:06;;;;;;;3.22;2.00;;;;;;;;;;4994698;28;20026;-87
2021/09/23 11:23:52;;;;;;;3.75;1.95;;;;;;;;;;4987986;28;20384;-86
2021/09/23 11:26:37;;;;;;;6.93;2.30;;;;;;;;;;4994793;28;20024;-86
2021/09/23 11:29:23;;;;;;;2.00;1.80;;;;;;;;;;4994646;28;20025;-85
2021/09/23 11:32:10;;;;;;;2.95;1.77;;;;;;;;;;5005904;28;20029;-85
2021/09/23 11:34:57;;;;;;;2.70;2.10;;;;;;;;;;5010379;28;20014;-85
2021/09/23 11:37:42;;;;;;;2.60;2.05;;;;;;;;;;5014010;28;20018;-86
2021/09/23 11:40:34;;;;;;;3.13;2.10;;;;;;;;;;4994867;28;20109;-86
2021/09/23 11:43:21;;;;;;;2.78;2.03;;;;;;;;;;4994286;28;20029;-85
2021/09/23 11:46:06;;;;;;;4.75;2.40;;;;;;;;;;4991638;28;20032;-86
2021/09/23 11:48:51;;;;;;;5.10;2.22;;;;;;;;;;4991528;28;20058;-87
2021/09/23 11:51:37;;;;;;;2.10;1.90;;;;;;;;;;4991246;28;20018;-84
2021/09/23 11:54:23;;;;;;;2.67;2.00;;;;;;;;;;4993284;28;20018;-85
2021/09/23 11:57:13;;;;;;;4.30;2.53;;;;;;;;;;4992209;28;20034;-85
2021/09/23 12:00:00;;;;;;;5.03;2.38;;;;;;;;;;4991958;28;20393;-85
2021/09/23 12:02:54;;;;;;;3.05;2.00;;;;;;;;;;4993630;28;20028;-84
2021/09/23 12:05:40;;;;;;;2.63;2.42;;;;;;;;;;4991112;28;20026;-83
2021/09/23 12:08:29;;;;;;;3.35;2.30;;;;;;;;;;4990502;28;20038;-82
2021/09/23 12:11:14;;;;;;;2.58;1.88;;;;;;;;;;4993110;28;20021;-86
2021/09/23 12:14:06;;;;;;;4.93;2.47;;;;;;;;;;4993328;28;20034;-85
2021/09/23 12:17:07;;;;;;;5.47;2.60;;;;;;;;;;4993010;28;20022;-83
2021/09/23 12:19:56;;;;;;;4.10;2.03;;;;;;;;;;4992151;28;20084;-84
2021/09/23 12:22:41;;;;;;;3.55;2.28;;;;;;;;;;4992972;28;20041;-84
2021/09/23 12:25:26;;;;;;;3.35;2.22;;;;;;;;;;4994176;28;20029;-83
2021/09/23 12:28:14;;;;;;;4.10;2.42;;;;;;;;;;4986430;28;20018;-84
2021/09/23 12:31:00;;;;;;;8.43;3.50;;;;;;;;;;4993195;28;20452;-83
2021/09/23 12:33:51;;;;;;;5.78;2.90;;;;;;;;;;4987108;28;20121;-83
2021/09/23 12:36:41;;;;;;;13.10;5.38;;;;;;;;;;4984687;28;20113;-84
2021/09/23 12:39:47;;;;;;;4.97;3.00;;;;;;;;;;4989110;28;20123;-82
2021/09/23 12:42:33;;;;;;;4.20;2.47;;;;;;;;;;4987278;28;20064;-83
2021/09/23 12:45:20;;;;;;;3.22;2.30;;;;;;;;;;4995465;28;20025;-83
2021/09/23 12:48:13;;;;;;;3.47;2.53;;;;;;;;;;4993613;28;20050;-83
2021/09/23 12:50:58;;;;;;;5.10;2.65;;;;;;;;;;4995049;28;20057;-88
2021/09/23 12:53:43;;;;;;;3.70;2.38;;;;;;;;;;4997816;28;20018;-90
2021/09/23 12:56:29;;;;;;;4.85;2.28;;;;;;;;;;5001349;28;20373;-91
2021/09/23 12:59:21;;;;;;;3.45;2.45;;;;;;;;;;4999920;28;20377;-90
2021/09/23 13:02:14;;;;;;;4.40;2.47;;;;;;;;;;5008635;28;20057;-91
2021/09/23 13:05:01;;;;;;;6.45;2.78;;;;;;;;;;4996933;28;20120;-88
2021/09/23 13:07:50;;;;;;;5.63;2.70;;;;;;;;;;4996936;28;20049;-87
2021/09/23 13:10:35;;;;;;;6.10;2.88;;;;;;;;;;4999100;28;20036;-87
2021/09/23 13:13:21;;;;;;;4.07;2.45;;;;;;;;;;4998302;28;20071;-86
2021/09/23 13:16:06;;;;;;;6.10;2.38;;;;;;;;;;4993875;28;20030;-87
2021/09/23 13:18:52;;;;;;;6.93;2.83;;;;;;;;;;4994624;28;20083;-86
2021/09/23 13:21:37;;;;;;;3.80;2.50;;;;;;;;;;4992830;28;20221;-87
2021/09/23 13:24:22;;;;;;;6.50;2.78;;;;;;;;;;4996726;28;20101;-87
2021/09/23 13:27:08;;;;;;;5.50;2.47;;;;;;;;;;4999292;28;20092;-86
2021/09/23 13:29:53;;;;;;;4.32;2.28;;;;;;;;;;4990739;28;20100;-87
2021/09/23 13:32:38;;;;;;;6.50;2.53;;;;;;;;;;4998139;28;20121;-86
2021/09/23 13:35:24;;;;;;;3.70;2.67;;;;;;;;;;4996787;28;20018;-86
2021/09/23 13:38:09;;;;;;;4.85;2.15;;;;;;;;;;4993204;28;20022;-88
2021/09/23 13:40:55;;;;;;;5.20;3.03;;;;;;;;;;4997183;28;20508;-87
2021/09/23 13:43:41;;;;;;;4.13;2.50;;;;;;;;;;4997771;28;20395;-86
2021/09/23 13:46:26;;;;;;;4.47;3.17;;;;;;;;;;4998302;28;20125;-86
2021/09/23 13:49:11;;;;;;;4.78;2.83;;;;;;;;;;4991554;28;20042;-86
2021/09/23 13:51:57;;;;;;;5.53;2.90;;;;;;;;;;4984755;28;20084;-84
2021/09/23 13:54:42;;;;;;;4.63;2.42;;;;;;;;;;4986590;28;20014;-85
2021/09/23 13:57:27;;;;;;;6.10;3.15;;;;;;;;;;4991465;28;20030;-85
2021/09/23 14:00:14;;;;;;;7.47;3.25;;;;;;;;;;4988903;28;20084;-85
2021/09/23 14:03:00;;;;;;;5.43;2.85;;;;;;;;;;4988853;28;20103;-85
2021/09/23 14:05:45;;;;;;;7.38;3.33;;;;;;;;;;4971585;28;20586;-86
2021/09/23 14:08:31;;;;;;;7.03;2.72;;;;;;;;;;4991386;28;20018;-86
2021/09/23 14:11:17;;;;;;;4.80;2.67;;;;;;;;;;4990999;28;20089;-87
2021/09/23 14:14:02;;;;;;;10.93;2.92;;;;;;;;;;4990241;28;20026;-85
2021/09/23 14:16:47;;;;;;;7.95;3.30;;;;;;;;;;4989051;28;20508;-83
2021/09/23 14:19:34;;;;;;;4.95;2.97;;;;;;;;;;4988703;28;20068;-83
2021/09/23 14:22:19;;;;;;;3.60;2.75;;;;;;;;;;4989309;28;20093;-84
2021/09/23 14:25:05;;;;;;;6.88;3.08;;;;;;;;;;4975595;28;20060;-87
2021/09/23 14:27:50;;;;;;;5.13;3.20;;;;;;;;;;4990421;28;20034;-85
2021/09/23 14:30:36;;;;;;;4.95;2.80;;;;;;;;;;4977927;28;20030;-85
2021/09/23 14:33:21;;;;;;;6.22;2.97;;;;;;;;;;4991587;28;20026;-86
2021/09/23 14:36:07;;;;;;;5.20;3.35;;;;;;;;;;4987882;28;20042;-84
2021/09/23 14:38:52;;;;;;;5.45;2.72;;;;;;;;;;4990222;28;20054;-83
2021/09/23 14:41:37;;;;;;;6.30;3.35;;;;;;;;;;4988379;28;20508;-83
2021/09/23 14:44:23;;;;;;;7.18;3.33;;;;;;;;;;4989258;28;20497;-84
2021/09/23 14:47:08;;;;;;;5.05;3.08;;;;;;;;;;4983685;28;20576;-85
2021/09/23 14:49:54;;;;;;;4.68;2.97;;;;;;;;;;4990786;28;20038;-85
2021/09/23 14:52:39;;;;;;;5.78;2.90;;;;;;;;;;4988961;28;20026;-85
2021/09/23 14:55:25;;;;;;;4.90;2.90;;;;;;;;;;4990784;28;20113;-87
2021/09/23 14:58:10;;;;;;;6.90;3.08;;;;;;;;;;4991412;28;20488;-83
2021/09/23 15:00:56;;;;;;;4.90;2.75;;;;;;;;;;4986016;28;20038;-80
2021/09/23 15:03:42;;;;;;;5.60;2.70;;;;;;;;;;4982466;28;20524;-82
2021/09/23 15:06:27;;;;;;;3.90;3.00;;;;;;;;;;4984727;28;20033;-81
2021/09/23 15:09:13;;;;;;;4.32;3.25;;;;;;;;;;4985752;28;20449;-82
2021/09/23 15:11:58;;;;;;;6.43;3.00;;;;;;;;;;4986912;28;20037;-82
2021/09/23 15:14:44;;;;;;;5.50;3.15;;;;;;;;;;4987690;28;20096;-83
2021/09/23 15:17:29;;;;;;;4.07;2.70;;;;;;;;;;4988776;28;20026;-80
2021/09/23 15:20:14;;;;;;;4.75;2.80;;;;;;;;;;4985945;28;20030;-81
2021/09/23 15:22:59;;;;;;;4.80;2.53;;;;;;;;;;4988627;28;20447;-82
2021/09/23 15:25:45;;;;;;;2.78;2.42;;;;;;;;;;4994712;28;20102;-81
2021/09/23 15:28:33;;;;;;;4.50;2.80;;;;;;;;;;4998953;28;20173;-82
2021/09/23 15:31:19;;;;;;;4.05;2.60;;;;;;;;;;4987442;28;20022;-77
2021/09/23 15:34:04;;;;;;;4.63;2.50;;;;;;;;;;4991636;28;20034;-79
2021/09/23 15:36:49;;;;;;;4.70;2.70;;;;;;;;;;4989571;28;20097;-80
2021/09/23 15:39:35;;;;;;;2.97;2.33;;;;;;;;;;4988648;28;20038;-76
2021/09/23 15:42:20;;;;;;;5.55;2.50;;;;;;;;;;4980942;28;20141;-78
2021/09/23 15:45:06;;;;;;;5.38;2.45;;;;;;;;;;4987807;28;20030;-80
2021/09/23 15:47:51;;;;;;;3.17;2.35;;;;;;;;;;4999892;28;20628;-80
2021/09/23 15:50:39;;;;;;;3.45;2.28;;;;;;;;;;5003075;28;20062;-82
2021/09/23 15:53:24;;;;;;;4.40;2.50;;;;;;;;;;4997032;28;20029;-81
2021/09/23 15:56:10;;;;;;;2.95;2.30;;;;;;;;;;5002090;28;20022;-81
2021/09/23 15:58:55;;;;;;;3.92;2.25;;;;;;;;;;5006524;28;20022;-81
2021/09/23 16:01:42;;;;;;;5.60;2.78;;;;;;;;;;5002060;28;20026;-81
2021/09/23 16:04:27;;;;;;;4.35;2.50;;;;;;;;;;5003445;28;20026;-82
2021/09/23 16:07:13;;;;;;;3.55;2.58;;;;;;;;;;4999391;28;20026;-83
2021/09/23 16:09:58;;;;;;;4.70;3.03;;;;;;;;;;4993817;28;20024;-81
2021/09/23 16:12:44;;;;;;;9.80;3.22;;;;;;;;;;5000159;28;20022;-81
2021/09/23 16:15:30;;;;;;;5.40;2.95;;;;;;;;;;5000121;28;20037;-79
2021/09/23 16:18:15;;;;;;;4.82;2.90;;;;;;;;;;4999957;28;20061;-80
2021/09/23 16:21:01;;;;;;;7.00;3.20;;;;;;;;;;4995341;28;20736;-79
2021/09/23 16:23:46;;;;;;;6.03;4.03;;;;;;;;;;4998344;28;20228;-80
2021/09/23 16:26:31;;;;;;;6.35;3.10;;;;;;;;;;4995997;28;20032;-79
2021/09/23 16:29:17;;;;;;;5.43;3.50;;;;;;;;;;4996792;28;20100;-79